Terminal Aerodrome Forecast
Issued by NWS

Home | Current Version | Previous Version | Text Only | Print | Product List | Glossary On
Versions: 1 2 3 4 5 6 7 8 9 10 11 12 13 14 15 16 17 18 19 20
954
FTUS42 KKEY 230257 AAA
TAFMTH
TAF AMD
KMTH 230257Z 2303/2324 20012G24KT P6SM SCT030 SCT070
     FM230500 22016G24KT P6SM VCSH SCT022
      TEMPO 2307/2310 22024G34KT 1SM +TSRA BKN022CB OVC050
     FM231100 27020G30KT P6SM SCT022 BKN050=

USA.gov is the U.S. government's official web portal to all federal, state and local government web resources and services.